This is the latest recevied weather packets stored in our database for station/object DB0FN-10. If no packets are shown the sender has not sent any weather packets the latest 10 day(s).
| Time | Temp. | Humidity | Pressure | Rain* | Wind** | Luminosity | Snow |
|---|---|---|---|---|---|---|---|
| 1787969846 | 22.22° C | 62% | 1022.3 hPa | - | - | - | - |
| 1787968946 | 22.22° C | 61% | 1022.3 hPa | - | - | - | - |
| 1787968046 | 22.78° C | 61% | 1022.4 hPa | - | - | - | - |
| 1787967146 | 22.78° C | 60% | 1022.5 hPa | - | - | - | - |
| 1787966246 | 22.22° C | 59% | 1022.6 hPa | - | - | - | - |
| 1787965346 | 22.22° C | 60% | 1022.7 hPa | - | - | - | - |
| 1787964446 | 22.78° C | 63% | 1022.8 hPa | - | - | - | - |
| 1787963546 | 22.22° C | 63% | 1022.6 hPa | - | - | - | - |
| 1787962645 | 22.78° C | 61% | 1022.6 hPa | - | - | - | - |
| 1787961745 | 22.78° C | 61% | 1022.8 hPa | - | - | - | - |
| 1787960845 | 22.78° C | 61% | 1022.8 hPa | - | - | - | - |
| 1787959945 | 22.22° C | 65% | 1022.9 hPa | - | - | - | - |
| 1787959045 | 22.78° C | 64% | 1022.9 hPa | - | - | - | - |
| 1787958145 | 22.78° C | 63% | 1022.9 hPa | - | - | - | - |
| 1787957245 | 22.78° C | 63% | 1022.8 hPa | - | - | - | - |
| 1787956345 | 22.22° C | 67% | 1022.9 hPa | - | - | - | - |
| 1787955445 | 21.67° C | 68% | 1022.9 hPa | - | - | - | - |
| 1787954545 | 21.11° C | 70% | 1022.8 hPa | - | - | - | - |
| 1787953645 | 21.11° C | 71% | 1022.8 hPa | - | - | - | - |
| 1787952745 | 20.56° C | 74% | 1022.7 hPa | - | - | - | - |
| 1787951845 | 20° C | 79% | 1022.9 hPa | - | - | - | - |
| 1787950944 | 20.56° C | 80% | 1022.8 hPa | - | - | - | - |
| 1787950044 | 20° C | 81% | 1022.6 hPa | - | - | - | - |
| 1787949144 | 20.56° C | 75% | 1022.3 hPa | - | - | - | - |
| 1787948244 | 20.56° C | 76% | 1022.6 hPa | - | - | - | - |
* Rain since midnight (hover to see other rain measurements)
** Current wind speed in m/s (hover to see current wind gust speed)